createdAt,value
2023-03-31T00:00:36.918Z,12.95
2023-03-31T00:03:10.386Z,12.98
2023-03-31T00:05:38.450Z,12.97
2023-03-31T00:08:07.256Z,12.96
2023-03-31T00:10:35.758Z,12.95
2023-03-31T00:13:04.889Z,12.96
2023-03-31T00:15:32.729Z,12.92
2023-03-31T00:18:00.847Z,12.94
2023-03-31T00:20:29.052Z,12.95
2023-03-31T00:22:57.624Z,12.95
2023-03-31T00:25:27.854Z,12.96
2023-03-31T00:27:55.780Z,12.91
2023-03-31T00:30:25.251Z,12.90
2023-03-31T00:32:53.329Z,12.86
2023-03-31T00:35:23.672Z,12.81
2023-03-31T00:37:51.410Z,12.79
2023-03-31T00:40:19.190Z,12.75
2023-03-31T00:42:48.195Z,12.75
2023-03-31T00:45:29.533Z,12.69
2023-03-31T00:48:04.304Z,12.62
2023-03-31T00:50:36.554Z,12.64
2023-03-31T00:53:09.659Z,12.65
2023-03-31T00:55:43.145Z,12.62
2023-03-31T00:58:15.227Z,12.63
2023-03-31T01:00:44.514Z,12.60
2023-03-31T01:03:12.387Z,12.62
2023-03-31T01:05:45.927Z,12.57
2023-03-31T01:08:15.903Z,12.62
2023-03-31T01:10:49.412Z,12.60
2023-03-31T01:13:19.801Z,12.65
2023-03-31T01:15:49.915Z,12.63
2023-03-31T01:18:21.216Z,12.51
2023-03-31T01:21:19.024Z,12.58
2023-03-31T01:24:16.683Z,12.56
2023-03-31T01:26:57.481Z,12.53
2023-03-31T01:29:44.069Z,12.51
2023-03-31T01:32:43.510Z,12.56
2023-03-31T01:35:33.805Z,12.48
2023-03-31T01:38:25.640Z,12.49
2023-03-31T01:41:09.381Z,12.55
2023-03-31T01:43:45.931Z,12.53
2023-03-31T01:46:22.430Z,12.63
2023-03-31T01:48:59.223Z,12.65
2023-03-31T01:51:34.761Z,12.63
2023-03-31T01:54:10.898Z,12.65
2023-03-31T01:56:45.238Z,12.71
2023-03-31T01:59:17.698Z,12.69
2023-03-31T02:01:52.371Z,12.67
2023-03-31T02:04:24.430Z,12.64
2023-03-31T02:06:57.212Z,12.66
2023-03-31T02:09:28.648Z,12.61
2023-03-31T02:12:00.473Z,12.64
2023-03-31T02:14:32.321Z,12.60
2023-03-31T02:17:03.910Z,12.61
2023-03-31T02:19:35.365Z,12.61
2023-03-31T02:22:05.777Z,12.57
2023-03-31T02:24:35.360Z,12.56
2023-03-31T02:27:10.226Z,12.56
2023-03-31T02:29:38.248Z,12.53
2023-03-31T02:32:12.576Z,12.54
2023-03-31T02:34:40.711Z,12.55
2023-03-31T02:37:08.733Z,12.51
2023-03-31T02:39:39.642Z,12.53
2023-03-31T02:42:09.299Z,12.55
2023-03-31T02:44:38.317Z,12.56
2023-03-31T02:47:09.556Z,12.54
2023-03-31T02:49:39.959Z,12.50
2023-03-31T02:52:37.815Z,12.54
2023-03-31T02:55:17.648Z,12.54
2023-03-31T02:58:09.896Z,12.56
2023-03-31T03:00:49.969Z,12.57
2023-03-31T03:03:30.885Z,12.52
2023-03-31T03:06:07.204Z,12.54
2023-03-31T03:09:09.027Z,12.50
2023-03-31T03:11:48.050Z,12.43
2023-03-31T03:14:28.636Z,12.38
2023-03-31T03:17:02.227Z,12.41
2023-03-31T03:19:30.238Z,12.44
2023-03-31T03:21:59.042Z,12.42
2023-03-31T03:24:29.478Z,12.36
2023-03-31T03:26:57.959Z,12.43
2023-03-31T03:29:27.185Z,12.45
2023-03-31T03:31:55.397Z,12.44
2023-03-31T03:34:23.175Z,12.45
2023-03-31T03:36:51.888Z,12.36
2023-03-31T03:39:19.684Z,12.42
2023-03-31T03:41:47.856Z,12.43
2023-03-31T03:44:15.844Z,12.45
2023-03-31T03:46:45.002Z,12.48
2023-03-31T03:49:12.929Z,12.47
2023-03-31T03:54:23.136Z,12.49
2023-03-31T03:56:51.135Z,12.43
2023-03-31T03:59:19.139Z,12.44
2023-03-31T04:01:48.578Z,12.33
2023-03-31T04:04:16.928Z,12.48
2023-03-31T04:06:44.759Z,12.44
2023-03-31T04:09:12.547Z,12.46
2023-03-31T04:11:40.326Z,12.48
2023-03-31T04:14:08.093Z,12.50
2023-03-31T04:16:35.852Z,12.49
2023-03-31T04:19:05.271Z,12.51
2023-03-31T04:21:34.934Z,12.51
2023-03-31T04:24:04.708Z,12.49
2023-03-31T04:26:45.111Z,12.47
2023-03-31T04:29:14.209Z,12.50
2023-03-31T04:31:43.611Z,12.48
2023-03-31T04:34:14.889Z,12.49
2023-03-31T04:36:47.163Z,12.45
2023-03-31T04:39:16.386Z,12.38
2023-03-31T04:41:44.234Z,12.42
2023-03-31T04:44:11.916Z,12.44
2023-03-31T04:46:39.642Z,12.41
2023-03-31T04:49:07.407Z,12.41
2023-03-31T04:51:36.406Z,12.37
2023-03-31T04:54:04.238Z,12.39
2023-03-31T04:56:31.956Z,12.33
2023-03-31T04:58:59.720Z,12.29
2023-03-31T05:01:27.435Z,12.27
2023-03-31T05:03:55.186Z,12.25
2023-03-31T05:06:23.178Z,12.31
2023-03-31T05:08:52.279Z,12.27
2023-03-31T05:11:20.029Z,12.27
2023-03-31T05:13:47.817Z,12.25
2023-03-31T05:16:16.324Z,12.25
2023-03-31T05:18:44.148Z,12.28
2023-03-31T05:21:12.977Z,12.15
2023-03-31T05:23:40.836Z,12.32
2023-03-31T05:26:10.858Z,12.33
2023-03-31T05:28:39.181Z,12.36
2023-03-31T05:31:07.876Z,12.33
2023-03-31T05:33:40.149Z,12.32
2023-03-31T05:36:10.674Z,12.33
2023-03-31T05:38:39.070Z,12.33
2023-03-31T05:41:07.578Z,12.32
2023-03-31T05:43:36.886Z,12.33
2023-03-31T05:46:05.330Z,12.39
2023-03-31T05:48:33.401Z,12.44
2023-03-31T05:51:02.151Z,12.38
2023-03-31T05:53:30.795Z,12.39
2023-03-31T05:55:59.549Z,12.40
2023-03-31T05:58:27.717Z,12.41
2023-03-31T06:01:06.078Z,12.37
2023-03-31T06:03:34.592Z,12.37
2023-03-31T06:06:02.961Z,12.37
2023-03-31T06:08:31.122Z,12.15
2023-03-31T06:10:59.026Z,12.33
2023-03-31T06:13:26.857Z,12.36
2023-03-31T06:15:56.091Z,12.34
2023-03-31T06:18:25.755Z,12.39
2023-03-31T06:20:53.549Z,12.38
2023-03-31T06:23:21.507Z,12.36
2023-03-31T06:25:51.722Z,12.27
2023-03-31T06:28:19.997Z,12.32
2023-03-31T06:30:48.090Z,12.32
2023-03-31T06:33:16.499Z,12.31
2023-03-31T06:35:45.662Z,12.32
2023-03-31T06:38:13.492Z,12.35
2023-03-31T06:40:41.265Z,12.35
2023-03-31T06:43:09.192Z,12.33
2023-03-31T06:45:38.295Z,12.26
2023-03-31T06:48:06.954Z,12.16
2023-03-31T06:50:34.894Z,12.18
2023-03-31T06:53:04.136Z,12.16
2023-03-31T06:55:33.789Z,12.15
2023-03-31T06:58:01.679Z,12.18
2023-03-31T07:00:29.748Z,12.20
2023-03-31T07:02:57.762Z,12.21
2023-03-31T07:05:27.458Z,12.20
2023-03-31T07:07:55.318Z,12.24
2023-03-31T07:10:25.301Z,12.26
2023-03-31T07:12:53.105Z,12.22
2023-03-31T07:15:20.981Z,12.31
2023-03-31T07:17:51.187Z,12.33
2023-03-31T07:20:20.558Z,12.32
2023-03-31T07:22:49.993Z,12.36
2023-03-31T07:25:18.731Z,12.32
2023-03-31T07:27:47.882Z,12.51
2023-03-31T07:30:17.700Z,12.57
2023-03-31T07:32:47.903Z,12.58
2023-03-31T07:35:16.113Z,12.61
2023-03-31T07:37:45.704Z,12.59
2023-03-31T07:40:16.527Z,12.66
2023-03-31T07:42:49.178Z,12.74
2023-03-31T07:45:19.040Z,12.80
2023-03-31T07:47:47.355Z,12.80
2023-03-31T07:50:16.483Z,12.87
2023-03-31T07:52:46.875Z,12.83
2023-03-31T07:55:15.712Z,12.85
2023-03-31T07:57:46.102Z,12.92
2023-03-31T08:00:15.796Z,12.92
2023-03-31T08:02:45.405Z,13.06
2023-03-31T08:05:14.959Z,13.11
2023-03-31T08:07:44.656Z,13.15
2023-03-31T08:10:14.762Z,13.21
2023-03-31T08:12:42.595Z,13.25
2023-03-31T08:15:11.101Z,13.20
2023-03-31T08:17:39.645Z,13.22
2023-03-31T08:20:10.619Z,13.20
2023-03-31T08:22:39.016Z,13.16
2023-03-31T08:25:09.091Z,13.15
2023-03-31T08:27:39.339Z,13.14
2023-03-31T08:30:08.633Z,13.19
2023-03-31T08:32:36.940Z,13.24
2023-03-31T08:35:05.463Z,13.19
2023-03-31T08:37:34.820Z,13.34
2023-03-31T08:40:04.593Z,13.44
2023-03-31T08:42:38.740Z,13.54
2023-03-31T08:45:12.596Z,13.55
2023-03-31T08:47:41.634Z,13.61
2023-03-31T08:50:14.674Z,13.63
2023-03-31T08:52:48.177Z,13.65
2023-03-31T08:55:25.637Z,13.76
2023-03-31T08:57:59.972Z,13.90
2023-03-31T09:00:45.925Z,14.00
2023-03-31T09:03:20.385Z,14.08
2023-03-31T09:06:00.226Z,14.13
2023-03-31T09:08:38.227Z,14.08
2023-03-31T09:11:14.260Z,14.29
2023-03-31T09:14:23.573Z,14.35
2023-03-31T09:17:01.535Z,14.43
2023-03-31T09:19:37.269Z,14.53
2023-03-31T09:22:10.425Z,14.50
2023-03-31T09:24:48.591Z,14.48
2023-03-31T09:27:17.635Z,14.46
2023-03-31T09:29:50.081Z,14.42
2023-03-31T09:32:19.419Z,14.35
2023-03-31T09:34:49.011Z,14.40
2023-03-31T09:37:17.080Z,14.47
2023-03-31T09:39:46.417Z,14.43
2023-03-31T09:42:15.543Z,14.38
2023-03-31T09:44:47.239Z,14.38
2023-03-31T09:47:20.863Z,14.33
2023-03-31T09:49:54.085Z,14.39
2023-03-31T09:52:29.886Z,14.45
2023-03-31T09:55:01.349Z,14.50
2023-03-31T09:57:33.786Z,14.52
2023-03-31T10:00:14.651Z,14.58
2023-03-31T10:02:45.795Z,14.71
2023-03-31T10:05:27.010Z,14.88
2023-03-31T10:08:12.466Z,15.03
2023-03-31T10:10:46.894Z,15.06
2023-03-31T10:13:18.538Z,15.12
2023-03-31T10:15:46.654Z,15.19
2023-03-31T10:18:15.460Z,15.14
2023-03-31T10:20:46.447Z,15.13
2023-03-31T10:23:19.640Z,15.03
2023-03-31T10:25:50.814Z,14.98
2023-03-31T10:28:21.187Z,15.03
2023-03-31T10:30:51.162Z,15.07
2023-03-31T10:33:23.222Z,15.06
2023-03-31T10:35:56.841Z,15.22
2023-03-31T10:38:28.716Z,15.29
2023-03-31T10:41:00.187Z,15.19
2023-03-31T10:43:30.323Z,15.47
2023-03-31T10:46:01.212Z,15.29
2023-03-31T10:48:30.731Z,15.24
2023-03-31T10:51:01.737Z,15.18
2023-03-31T10:53:29.455Z,15.10
2023-03-31T10:56:18.533Z,15.05
2023-03-31T10:59:16.380Z,14.96
2023-03-31T11:02:03.207Z,14.67
2023-03-31T11:04:45.651Z,14.46
2023-03-31T11:07:27.501Z,14.39
2023-03-31T11:10:11.554Z,14.33
2023-03-31T11:12:49.773Z,14.27
2023-03-31T11:15:26.054Z,13.87
2023-03-31T11:18:17.533Z,13.45
2023-03-31T11:20:59.269Z,12.75
2023-03-31T11:23:38.731Z,12.42
2023-03-31T11:26:11.866Z,12.47
2023-03-31T11:29:02.624Z,12.48
2023-03-31T11:31:40.572Z,12.53
2023-03-31T11:34:26.734Z,12.67
2023-03-31T11:37:31.920Z,12.75
2023-03-31T11:40:14.639Z,12.91
2023-03-31T11:42:53.845Z,12.91
2023-03-31T11:45:29.491Z,13.15
2023-03-31T11:48:06.235Z,13.16
2023-03-31T11:50:39.920Z,13.10
2023-03-31T11:53:16.921Z,13.30
2023-03-31T11:55:47.604Z,13.38
2023-03-31T11:58:18.695Z,13.49
2023-03-31T12:00:52.785Z,13.71
2023-03-31T12:03:24.614Z,13.85
2023-03-31T12:05:56.664Z,13.86
2023-03-31T12:08:30.512Z,13.92
2023-03-31T12:11:03.660Z,13.91
2023-03-31T12:13:41.312Z,13.86
2023-03-31T12:16:16.155Z,13.85
2023-03-31T12:18:58.255Z,13.96
2023-03-31T12:21:28.038Z,13.95
2023-03-31T12:23:58.540Z,13.93
2023-03-31T12:26:38.651Z,13.85
2023-03-31T12:29:17.040Z,13.83
2023-03-31T12:31:47.435Z,13.78
2023-03-31T12:34:19.955Z,13.79
2023-03-31T12:37:00.727Z,13.77
2023-03-31T12:39:44.610Z,13.73
2023-03-31T12:42:40.603Z,13.78
2023-03-31T12:45:18.927Z,13.59
2023-03-31T12:48:03.961Z,13.62
2023-03-31T12:50:43.555Z,13.70
2023-03-31T12:53:21.892Z,13.74
2023-03-31T12:55:51.964Z,13.79
2023-03-31T12:58:41.974Z,13.89
2023-03-31T13:01:17.194Z,13.88
2023-03-31T13:03:50.395Z,13.84
2023-03-31T13:06:52.568Z,13.90
2023-03-31T13:09:43.611Z,13.89
2023-03-31T13:12:17.240Z,13.81
2023-03-31T13:14:50.520Z,14.02
2023-03-31T13:17:27.713Z,14.12
2023-03-31T13:19:58.554Z,14.14
2023-03-31T13:22:35.189Z,14.08
2023-03-31T13:25:42.279Z,14.14
2023-03-31T13:28:15.526Z,14.16
2023-03-31T13:30:52.109Z,14.22
2023-03-31T13:33:24.225Z,14.20
2023-03-31T13:35:58.182Z,14.22
2023-03-31T13:38:38.781Z,14.29
2023-03-31T13:41:16.334Z,14.30
2023-03-31T13:44:11.480Z,14.41
2023-03-31T13:47:05.145Z,14.54
2023-03-31T13:49:54.338Z,14.56
2023-03-31T13:52:40.490Z,14.44
2023-03-31T13:55:41.809Z,14.53
2023-03-31T13:58:38.665Z,14.59
2023-03-31T14:01:40.798Z,14.60
2023-03-31T14:04:25.978Z,14.74
2023-03-31T14:06:57.454Z,14.86
2023-03-31T14:09:31.622Z,14.95
2023-03-31T14:11:59.867Z,14.97
2023-03-31T14:14:29.675Z,15.01
2023-03-31T14:17:00.304Z,15.10
2023-03-31T14:19:49.340Z,15.05
2023-03-31T14:22:29.302Z,15.02
2023-03-31T14:25:12.515Z,14.90
2023-03-31T14:27:54.910Z,14.85
2023-03-31T14:30:34.565Z,14.80
2023-03-31T14:33:17.136Z,14.75
2023-03-31T14:35:53.112Z,14.71
2023-03-31T14:38:22.377Z,14.69
2023-03-31T14:40:56.305Z,14.61
2023-03-31T14:43:26.797Z,14.53
2023-03-31T14:45:59.434Z,14.53
2023-03-31T14:48:28.813Z,14.51
2023-03-31T14:50:59.702Z,14.48
2023-03-31T14:53:28.284Z,14.48
2023-03-31T14:56:03.469Z,14.50
2023-03-31T14:58:35.347Z,14.50
2023-03-31T15:01:06.817Z,14.46
2023-03-31T15:03:37.591Z,14.46
2023-03-31T15:06:06.539Z,14.45
2023-03-31T15:08:36.832Z,14.42
2023-03-31T15:11:12.870Z,14.47
2023-03-31T15:14:04.463Z,14.40
2023-03-31T15:16:38.795Z,14.45
2023-03-31T15:19:14.998Z,14.39
2023-03-31T15:21:43.502Z,14.37
2023-03-31T15:24:13.145Z,14.41
2023-03-31T15:26:46.790Z,14.36
2023-03-31T15:29:19.301Z,14.11
2023-03-31T15:31:48.228Z,13.95
2023-03-31T15:34:21.040Z,13.69
2023-03-31T15:36:49.277Z,13.47
2023-03-31T15:39:17.019Z,13.39
2023-03-31T15:41:49.092Z,13.35
2023-03-31T15:44:31.186Z,13.21
2023-03-31T15:47:06.931Z,13.13
2023-03-31T15:49:35.597Z,12.96
2023-03-31T15:52:03.418Z,13.04
2023-03-31T15:54:35.874Z,12.95
2023-03-31T15:57:06.940Z,12.97
2023-03-31T15:59:54.569Z,13.01
2023-03-31T16:02:26.723Z,12.97
2023-03-31T16:04:58.036Z,12.93
2023-03-31T16:07:28.538Z,12.97
2023-03-31T16:10:02.700Z,12.99
2023-03-31T16:12:36.389Z,13.02
2023-03-31T16:15:08.546Z,13.03
2023-03-31T16:17:39.734Z,13.10
2023-03-31T16:20:19.200Z,13.15
2023-03-31T16:22:50.879Z,13.13
2023-03-31T16:25:22.118Z,12.98
2023-03-31T16:27:55.014Z,12.99
2023-03-31T16:30:36.574Z,12.97
2023-03-31T16:33:07.004Z,12.98
2023-03-31T16:35:36.884Z,12.95
2023-03-31T16:38:04.993Z,12.81
2023-03-31T16:40:37.104Z,12.93
2023-03-31T16:43:11.406Z,12.88
2023-03-31T16:45:39.124Z,12.98
2023-03-31T16:48:15.641Z,12.98
2023-03-31T16:50:44.638Z,13.00
2023-03-31T16:53:13.683Z,12.98
2023-03-31T16:55:41.632Z,12.96
2023-03-31T16:58:11.303Z,13.06
2023-03-31T17:00:41.867Z,13.01
2023-03-31T17:03:11.768Z,13.05
2023-03-31T17:05:41.217Z,13.09
2023-03-31T17:08:10.180Z,13.08
2023-03-31T17:10:39.427Z,13.04
2023-03-31T17:13:08.050Z,13.03
2023-03-31T17:15:37.844Z,13.03
2023-03-31T17:18:07.279Z,13.07
2023-03-31T17:20:35.587Z,13.09
2023-03-31T17:23:04.339Z,13.09
2023-03-31T17:25:32.138Z,13.09
2023-03-31T17:28:01.365Z,13.08
2023-03-31T17:30:29.436Z,13.10
2023-03-31T17:33:01.666Z,13.09
2023-03-31T17:35:29.660Z,13.07
2023-03-31T17:37:57.615Z,13.11
2023-03-31T17:40:26.834Z,13.07
2023-03-31T17:42:55.878Z,12.96
2023-03-31T17:45:23.738Z,13.04
2023-03-31T17:47:51.692Z,13.08
2023-03-31T17:50:21.108Z,12.95
2023-03-31T17:52:49.502Z,12.98
2023-03-31T17:55:17.852Z,12.97
2023-03-31T17:57:46.240Z,12.98
2023-03-31T18:00:16.078Z,12.89
2023-03-31T18:02:44.552Z,12.89
2023-03-31T18:05:12.502Z,12.81
2023-03-31T18:07:42.338Z,12.82
2023-03-31T18:10:12.100Z,12.80
2023-03-31T18:12:39.940Z,12.79
2023-03-31T18:15:10.842Z,12.76
2023-03-31T18:17:38.958Z,12.86
2023-03-31T18:20:07.987Z,12.82
2023-03-31T18:22:38.286Z,12.82
2023-03-31T18:25:09.277Z,12.80
2023-03-31T18:27:37.366Z,12.84
2023-03-31T18:30:08.800Z,12.81
2023-03-31T18:32:37.280Z,12.86
2023-03-31T18:35:10.105Z,12.77
2023-03-31T18:37:37.808Z,12.78
2023-03-31T18:40:10.309Z,12.76
2023-03-31T18:42:38.031Z,12.63
2023-03-31T18:45:07.051Z,12.76
2023-03-31T18:47:34.772Z,12.79
2023-03-31T18:50:06.430Z,12.74
2023-03-31T18:52:35.447Z,12.68
2023-03-31T18:55:03.868Z,12.64
2023-03-31T18:57:33.066Z,12.60
2023-03-31T19:00:01.700Z,12.48
2023-03-31T19:02:29.755Z,12.58
2023-03-31T19:04:57.769Z,12.60
2023-03-31T19:07:25.545Z,12.56
2023-03-31T19:09:53.238Z,12.60
2023-03-31T19:12:22.311Z,12.53
2023-03-31T19:14:52.470Z,12.55
2023-03-31T19:17:20.896Z,12.56
2023-03-31T19:19:48.752Z,12.47
2023-03-31T19:22:16.925Z,12.38
2023-03-31T19:24:45.137Z,12.46
2023-03-31T19:27:13.524Z,12.45
2023-03-31T19:29:41.313Z,12.40
2023-03-31T19:32:10.527Z,12.36
2023-03-31T19:34:38.529Z,12.41
2023-03-31T19:37:06.610Z,12.39
2023-03-31T19:39:34.460Z,12.42
2023-03-31T19:42:03.101Z,12.40
2023-03-31T19:44:30.842Z,12.40
2023-03-31T19:46:58.827Z,12.38
2023-03-31T19:49:27.974Z,12.38
2023-03-31T19:51:55.951Z,12.38
2023-03-31T19:54:24.648Z,12.39
2023-03-31T19:56:52.592Z,12.38
2023-03-31T19:59:20.596Z,12.42
2023-03-31T20:01:48.470Z,12.41
2023-03-31T20:04:17.955Z,12.40
2023-03-31T20:06:48.366Z,12.38
2023-03-31T20:09:17.295Z,12.35
2023-03-31T20:11:45.567Z,12.33
2023-03-31T20:14:15.121Z,12.32
2023-03-31T20:16:44.536Z,12.32
2023-03-31T20:19:14.399Z,12.16
2023-03-31T20:21:42.771Z,12.33
2023-03-31T20:24:16.744Z,12.34
2023-03-31T20:26:45.380Z,12.30
2023-03-31T20:29:13.572Z,12.30
2023-03-31T20:31:41.881Z,12.24
2023-03-31T20:34:16.666Z,12.33
2023-03-31T20:36:45.781Z,12.32
2023-03-31T20:39:15.968Z,12.28
2023-03-31T20:41:44.139Z,12.23
2023-03-31T20:44:15.120Z,12.26
2023-03-31T20:46:44.870Z,12.22
2023-03-31T20:49:13.070Z,12.22
2023-03-31T20:51:42.626Z,12.10
2023-03-31T20:54:10.843Z,12.20
2023-03-31T20:56:41.549Z,12.14
2023-03-31T20:59:12.601Z,12.16
2023-03-31T21:01:42.221Z,12.07
2023-03-31T21:04:11.590Z,12.16
2023-03-31T21:06:41.765Z,12.14
2023-03-31T21:09:11.533Z,12.14
2023-03-31T21:11:41.421Z,12.11
2023-03-31T21:14:12.209Z,12.09
2023-03-31T21:16:40.139Z,12.13
2023-03-31T21:19:07.956Z,12.15
2023-03-31T21:21:36.326Z,12.11
2023-03-31T21:24:04.401Z,12.20
2023-03-31T21:26:32.303Z,12.19
2023-03-31T21:29:01.377Z,12.19
2023-03-31T21:31:29.149Z,12.19
2023-03-31T21:33:57.837Z,12.24
2023-03-31T21:36:26.770Z,12.25
2023-03-31T21:38:55.725Z,12.22
2023-03-31T21:41:25.452Z,12.25
2023-03-31T21:43:54.423Z,12.17
2023-03-31T21:46:26.458Z,12.29
2023-03-31T21:48:54.724Z,12.17
2023-03-31T21:51:23.704Z,12.30
2023-03-31T21:53:53.047Z,12.30
2023-03-31T21:56:20.972Z,12.26
2023-03-31T21:58:48.753Z,12.28
2023-03-31T22:01:16.707Z,12.29
2023-03-31T22:03:46.369Z,12.25
2023-03-31T22:06:14.104Z,12.25
2023-03-31T22:08:41.979Z,12.27
2023-03-31T22:11:12.935Z,12.23
2023-03-31T22:13:41.308Z,12.25
2023-03-31T22:16:17.160Z,12.08
2023-03-31T22:18:47.127Z,12.21
2023-03-31T22:21:22.652Z,12.17
2023-03-31T22:24:01.577Z,12.03
2023-03-31T22:26:31.039Z,12.18
2023-03-31T22:28:59.067Z,12.15
2023-03-31T22:31:27.210Z,12.14
2023-03-31T22:33:56.360Z,12.13
2023-03-31T22:36:27.189Z,12.15
2023-03-31T22:38:55.035Z,12.13
2023-03-31T22:41:23.473Z,12.11
2023-03-31T22:43:51.571Z,12.09
2023-03-31T22:46:19.456Z,12.05
2023-03-31T22:48:51.772Z,12.06
2023-03-31T22:51:21.008Z,12.06
2023-03-31T22:53:51.926Z,12.06
2023-03-31T22:56:20.131Z,12.02
2023-03-31T22:58:48.057Z,11.95
2023-03-31T23:01:17.810Z,11.91
2023-03-31T23:03:47.217Z,11.87
2023-03-31T23:06:21.898Z,11.80
2023-03-31T23:08:51.071Z,11.85
2023-03-31T23:11:19.542Z,11.79
2023-03-31T23:13:48.494Z,11.77
2023-03-31T23:16:18.936Z,11.69
2023-03-31T23:18:47.751Z,11.79
2023-03-31T23:21:17.035Z,11.80
2023-03-31T23:23:44.853Z,11.81
2023-03-31T23:26:15.802Z,11.83
2023-03-31T23:28:45.411Z,11.84
2023-03-31T23:31:13.363Z,11.80
2023-03-31T23:33:41.396Z,11.74
2023-03-31T23:36:10.461Z,11.82
2023-03-31T23:38:38.219Z,11.81
2023-03-31T23:41:06.030Z,11.85
2023-03-31T23:43:35.377Z,11.87
2023-03-31T23:46:04.851Z,11.87
2023-03-31T23:48:32.632Z,11.86
2023-03-31T23:51:00.547Z,11.82
2023-03-31T23:53:28.654Z,11.74
2023-03-31T23:55:57.832Z,11.74
2023-03-31T23:58:26.640Z,11.77
